Time;durP1;ratioP1;P1;durP2;ratioP2;P2;SDS_P1;SDS_P2;PMS_P1;PMS_P2;Temp;Humidity;BMP_temperature;BMP_pressure;BME280_temperature;BME280_humidity;BME280_pressure;Samples;Min_cycle;Max_cycle;Signal;HPM_P1;HPM_P2
2023/09/07 00:02:24;;;;;;;9.65;4.43;;;20.60;99.90;;;;;;5059956;28;20057;-57
2023/09/07 00:04:50;;;;;;;8.10;4.28;;;20.60;99.90;;;;;;5080310;28;20110;-57
2023/09/07 00:07:15;;;;;;;7.82;4.40;;;20.50;99.90;;;;;;5066560;28;20045;-56
2023/09/07 00:09:41;;;;;;;6.50;4.00;;;20.50;99.90;;;;;;5060987;28;20049;-57
2023/09/07 00:12:07;;;;;;;5.75;3.92;;;20.50;99.90;;;;;;5060470;28;20040;-56
2023/09/07 00:14:32;;;;;;;6.43;4.55;;;20.50;99.90;;;;;;5060292;28;20097;-57
2023/09/07 00:16:58;;;;;;;4.57;4.07;;;20.50;99.90;;;;;;5079983;28;20048;-57
2023/09/07 00:19:24;;;;;;;5.63;4.22;;;20.50;99.90;;;;;;5079362;28;20072;-57
2023/09/07 00:21:51;;;;;;;7.68;4.53;;;20.50;99.90;;;;;;5080690;28;20040;-56
2023/09/07 00:24:17;;;;;;;6.60;4.38;;;20.40;99.90;;;;;;5060689;28;20056;-57
2023/09/07 00:26:45;;;;;;;8.77;4.63;;;20.40;99.90;;;;;;5060682;28;20049;-56
2023/09/07 00:29:10;;;;;;;6.75;4.43;;;20.40;99.90;;;;;;5075672;28;20041;-56
2023/09/07 00:31:36;;;;;;;7.65;4.35;;;20.30;99.90;;;;;;5064077;28;20059;-57
2023/09/07 00:34:02;;;;;;;5.97;4.32;;;20.30;99.90;;;;;;5060547;28;20045;-57
2023/09/07 00:36:28;;;;;;;7.65;4.28;;;20.30;99.90;;;;;;5072280;28;20045;-56
2023/09/07 00:38:53;;;;;;;6.63;4.38;;;20.30;99.90;;;;;;5063079;28;20071;-57
2023/09/07 00:41:19;;;;;;;7.55;4.10;;;20.30;99.90;;;;;;5060560;28;20059;-57
2023/09/07 00:43:45;;;;;;;10.75;4.28;;;20.20;99.90;;;;;;5077659;28;20816;-57
2023/09/07 00:46:11;;;;;;;8.25;4.57;;;20.20;99.90;;;;;;5059206;28;20071;-57
2023/09/07 00:48:38;;;;;;;5.00;4.05;;;20.20;99.90;;;;;;5075209;28;20509;-56
2023/09/07 00:51:04;;;;;;;8.07;4.22;;;20.20;99.90;;;;;;5079141;28;20241;-56
2023/09/07 00:53:30;;;;;;;5.47;4.40;;;20.20;99.90;;;;;;5066638;28;20044;-56
2023/09/07 00:55:57;;;;;;;7.43;4.55;;;20.20;99.90;;;;;;5077374;28;20048;-56
2023/09/07 00:58:23;;;;;;;7.13;4.60;;;20.20;99.90;;;;;;5078781;28;20142;-57
2023/09/07 01:00:49;;;;;;;5.40;4.32;;;20.20;99.90;;;;;;5072129;28;20041;-56
2023/09/07 01:03:14;;;;;;;6.00;4.70;;;20.20;99.90;;;;;;5070027;28;20096;-56
2023/09/07 01:06:15;;;;;;;6.88;4.20;;;20.10;99.90;;;;;;5052139;28;20041;-57
2023/09/07 01:08:47;;;;;;;6.85;4.57;;;20.10;99.90;;;;;;5060719;28;21730;-58
2023/09/07 01:11:14;;;;;;;7.05;4.55;;;20.10;99.90;;;;;;5048625;28;20512;-57
2023/09/07 01:13:40;;;;;;;6.93;4.28;;;20.10;99.90;;;;;;5049054;28;20080;-56
2023/09/07 01:16:06;;;;;;;6.45;4.45;;;20.10;99.90;;;;;;5047454;28;20111;-57
2023/09/07 01:36:04;;;;;;;8.85;4.63;;;19.90;99.90;;;;;;5043784;28;20106;-57
2023/09/07 01:38:37;;;;;;;7.07;4.70;;;19.90;99.90;;;;;;5064640;28;20063;-56
2023/09/07 01:41:02;;;;;;;6.03;4.97;;;19.80;99.90;;;;;;5066458;28;20048;-57
2023/09/07 01:43:28;;;;;;;9.88;4.68;;;19.80;99.90;;;;;;5069679;28;20039;-56
2023/09/07 01:45:54;;;;;;;7.43;4.30;;;19.70;99.90;;;;;;5062371;28;20040;-59
2023/09/07 01:48:19;;;;;;;7.90;4.80;;;19.70;99.90;;;;;;5074102;28;20073;-57
2023/09/07 01:50:45;;;;;;;7.28;4.93;;;19.70;99.90;;;;;;5075995;28;20044;-56
2023/09/07 01:53:10;;;;;;;7.20;4.85;;;19.70;99.90;;;;;;5073908;28;20072;-56
2023/09/07 01:55:36;;;;;;;8.45;5.53;;;19.60;99.90;;;;;;5061505;28;20055;-57
2023/09/07 01:58:02;;;;;;;7.07;4.60;;;19.70;99.90;;;;;;5069535;28;20060;-56
2023/09/07 02:00:28;;;;;;;8.18;4.97;;;19.70;99.90;;;;;;5061573;28;20045;-56
2023/09/07 02:02:54;;;;;;;9.85;4.80;;;19.60;99.90;;;;;;5074358;28;20087;-56
2023/09/07 02:05:21;;;;;;;7.20;4.88;;;19.60;99.90;;;;;;5081263;28;20057;-55
2023/09/07 02:07:49;;;;;;;7.47;5.28;;;19.60;99.90;;;;;;5062616;28;20060;-55
2023/09/07 02:10:15;;;;;;;5.55;4.70;;;19.50;99.90;;;;;;5073183;28;20044;-56
2023/09/07 02:12:40;;;;;;;11.07;5.72;;;19.50;99.90;;;;;;5079800;28;20184;-56
2023/09/07 02:15:06;;;;;;;7.90;5.13;;;19.50;99.90;;;;;;5060109;28;20496;-56
2023/09/07 02:17:32;;;;;;;8.52;5.03;;;19.50;99.90;;;;;;5082342;28;20123;-56
2023/09/07 02:19:58;;;;;;;8.25;5.43;;;19.50;99.90;;;;;;5079742;28;20040;-56
2023/09/07 02:22:24;;;;;;;7.55;4.75;;;19.50;99.90;;;;;;5082706;28;20074;-57
2023/09/07 02:24:49;;;;;;;8.25;5.28;;;19.50;99.90;;;;;;5081091;28;20104;-57
2023/09/07 02:27:15;;;;;;;6.68;4.78;;;19.50;99.90;;;;;;5064574;28;20128;-57
2023/09/07 02:29:41;;;;;;;8.73;4.95;;;19.50;99.90;;;;;;5069594;28;20049;-56
2023/09/07 02:32:07;;;;;;;7.53;5.00;;;19.40;99.90;;;;;;5081550;28;20043;-56
2023/09/07 02:34:36;;;;;;;7.00;4.95;;;19.40;99.90;;;;;;5081361;28;20040;-57
2023/09/07 02:37:02;;;;;;;8.20;5.20;;;19.40;99.90;;;;;;5066171;28;20045;-56
2023/09/07 02:39:29;;;;;;;7.63;5.20;;;19.40;99.90;;;;;;5062604;28;20107;-57
2023/09/07 02:41:54;;;;;;;7.53;4.97;;;19.30;99.90;;;;;;5062370;28;20064;-57
2023/09/07 02:44:20;;;;;;;7.03;5.13;;;19.40;99.90;;;;;;5065021;28;20028;-57
2023/09/07 02:46:46;;;;;;;8.65;5.82;;;19.30;99.90;;;;;;5066044;28;20045;-56
2023/09/07 02:49:12;;;;;;;5.78;4.97;;;19.30;99.90;;;;;;5069020;28;20133;-57
2023/09/07 02:51:38;;;;;;;7.57;5.30;;;19.30;99.90;;;;;;5079464;28;20445;-57
2023/09/07 02:54:05;;;;;;;5.75;4.80;;;19.30;99.90;;;;;;5065956;28;20048;-57
2023/09/07 02:56:30;;;;;;;6.35;4.93;;;19.30;99.90;;;;;;5061841;28;20037;-56
2023/09/07 02:58:56;;;;;;;6.63;5.50;;;19.30;99.90;;;;;;5061501;28;20421;-56
2023/09/07 03:01:22;;;;;;;6.57;5.15;;;19.20;99.90;;;;;;5071505;28;20073;-55
2023/09/07 03:03:48;;;;;;;8.55;4.90;;;19.20;99.90;;;;;;5072248;28;20049;-56
2023/09/07 03:06:16;;;;;;;11.63;5.97;;;19.30;99.90;;;;;;5076469;28;20059;-57
2023/09/07 03:08:43;;;;;;;8.15;5.20;;;19.20;99.90;;;;;;5081598;28;20394;-57
2023/09/07 03:11:09;;;;;;;6.40;5.20;;;19.20;99.90;;;;;;5079821;28;20512;-56
2023/09/07 03:13:35;;;;;;;7.50;4.82;;;19.20;99.90;;;;;;5071761;28;20045;-56
2023/09/07 03:16:02;;;;;;;7.03;5.05;;;19.10;99.90;;;;;;5067520;28;20044;-56
2023/09/07 03:18:28;;;;;;;8.35;5.22;;;19.10;99.90;;;;;;5061730;28;20052;-57
2023/09/07 03:20:55;;;;;;;9.65;5.45;;;19.10;99.90;;;;;;5070705;28;20037;-55
2023/09/07 03:23:21;;;;;;;9.02;5.13;;;19.00;99.90;;;;;;5071098;28;20036;-57
2023/09/07 03:25:48;;;;;;;5.43;4.90;;;19.00;99.90;;;;;;5059990;28;20048;-56
2023/09/07 03:28:14;;;;;;;8.80;4.97;;;19.00;99.90;;;;;;5060377;28;20055;-56
2023/09/07 03:30:39;;;;;;;6.35;4.60;;;18.90;99.90;;;;;;5062722;28;20075;-56
2023/09/07 03:33:05;;;;;;;6.95;5.32;;;18.80;99.90;;;;;;5065752;28;20041;-57
2023/09/07 03:35:32;;;;;;;11.48;5.65;;;18.80;99.90;;;;;;5081058;28;20060;-56
2023/09/07 03:37:58;;;;;;;7.68;5.63;;;18.80;99.90;;;;;;5079162;28;20138;-56
2023/09/07 03:40:23;;;;;;;7.60;5.63;;;18.70;99.90;;;;;;5078541;28;20123;-56
2023/09/07 03:42:50;;;;;;;8.88;5.57;;;18.60;99.90;;;;;;5079141;28;20040;-55
2023/09/07 03:45:16;;;;;;;10.05;5.47;;;18.60;99.90;;;;;;5078123;28;20036;-57
2023/09/07 03:47:42;;;;;;;7.65;5.47;;;18.50;99.90;;;;;;5079707;28;20048;-57
2023/09/07 03:50:08;;;;;;;7.97;5.85;;;18.50;99.90;;;;;;5072235;28;20033;-57
2023/09/07 03:52:34;;;;;;;8.25;5.78;;;18.50;99.90;;;;;;5061388;28;20044;-57
2023/09/07 03:55:00;;;;;;;7.68;5.68;;;18.40;99.90;;;;;;5078427;28;20045;-56
2023/09/07 03:57:27;;;;;;;8.77;6.28;;;18.40;99.90;;;;;;5066760;28;20040;-60
2023/09/07 03:59:55;;;;;;;9.43;6.38;;;18.50;99.90;;;;;;5072167;28;20033;-57
2023/09/07 04:02:21;;;;;;;8.77;6.00;;;18.50;99.90;;;;;;5074020;28;20485;-57
2023/09/07 04:04:51;;;;;;;7.57;5.80;;;18.50;99.90;;;;;;5072249;28;20036;-56
2023/09/07 04:07:17;;;;;;;8.38;5.80;;;18.50;99.90;;;;;;5078929;28;20051;-56
2023/09/07 04:09:44;;;;;;;8.25;5.75;;;18.50;99.90;;;;;;5081114;28;20040;-57
2023/09/07 04:12:10;;;;;;;10.27;5.88;;;18.50;99.90;;;;;;5060368;28;20041;-57
2023/09/07 04:14:36;;;;;;;9.45;5.80;;;18.50;99.90;;;;;;5072034;28;20037;-57
2023/09/07 04:17:01;;;;;;;6.88;6.03;;;18.50;99.90;;;;;;5068019;28;20043;-56
2023/09/07 04:19:27;;;;;;;10.80;6.18;;;18.50;99.90;;;;;;5063956;28;20095;-57
2023/09/07 04:21:53;;;;;;;6.30;5.70;;;18.40;99.90;;;;;;5068515;28;20103;-57
2023/09/07 04:24:19;;;;;;;9.95;5.93;;;18.40;99.90;;;;;;5069288;28;20041;-56
2023/09/07 04:26:45;;;;;;;8.25;5.90;;;18.40;99.90;;;;;;5062775;28;20044;-57
2023/09/07 04:29:12;;;;;;;11.82;6.22;;;18.40;99.90;;;;;;5077434;28;20439;-57
2023/09/07 04:31:38;;;;;;;11.48;5.80;;;18.40;99.90;;;;;;5059831;28;20033;-57
2023/09/07 04:34:04;;;;;;;8.20;6.00;;;18.30;99.90;;;;;;5072313;28;20131;-56
2023/09/07 04:36:30;;;;;;;10.25;5.93;;;18.30;99.90;;;;;;5076380;28;20056;-57
2023/09/07 04:38:56;;;;;;;7.35;5.80;;;18.20;99.90;;;;;;5061376;28;20082;-56
2023/09/07 04:41:21;;;;;;;12.13;6.60;;;18.20;99.90;;;;;;5063002;28;20036;-56
2023/09/07 04:43:47;;;;;;;8.20;5.93;;;18.20;99.90;;;;;;5061793;28;20390;-56
2023/09/07 04:46:14;;;;;;;9.43;6.28;;;18.20;99.90;;;;;;5069805;28;20066;-56
2023/09/07 04:48:41;;;;;;;6.88;5.60;;;18.10;99.90;;;;;;5075069;28;20036;-58
2023/09/07 04:51:08;;;;;;;9.05;6.32;;;18.10;99.90;;;;;;5068913;28;20041;-56
2023/09/07 04:53:35;;;;;;;9.48;6.32;;;18.10;99.90;;;;;;5065767;28;20051;-57
2023/09/07 04:56:06;;;;;;;7.25;6.07;;;18.00;99.90;;;;;;5078310;28;20044;-56
2023/09/07 04:58:32;;;;;;;9.05;5.95;;;18.00;99.90;;;;;;5062383;28;20029;-57
2023/09/07 05:01:04;;;;;;;7.90;6.22;;;18.00;99.90;;;;;;5065583;28;20039;-56
2023/09/07 05:03:31;;;;;;;8.80;6.15;;;17.90;99.90;;;;;;5068375;28;20127;-56
2023/09/07 05:05:56;;;;;;;9.40;6.22;;;17.90;99.90;;;;;;5067582;28;20135;-56
2023/09/07 05:08:24;;;;;;;8.52;6.10;;;17.80;99.90;;;;;;5060684;28;20041;-56
2023/09/07 05:10:58;;;;;;;9.02;6.18;;;17.80;99.90;;;;;;5069466;28;20044;-57
2023/09/07 05:13:24;;;;;;;10.52;6.38;;;17.80;99.90;;;;;;5061872;28;20037;-57
2023/09/07 05:15:51;;;;;;;7.20;6.00;;;17.70;99.90;;;;;;5065045;28;20032;-57
2023/09/07 05:18:18;;;;;;;9.30;6.22;;;17.70;99.90;;;;;;5066940;28;20099;-57
2023/09/07 05:20:44;;;;;;;10.57;6.68;;;17.70;99.90;;;;;;5058620;28;20037;-57
2023/09/07 05:23:12;;;;;;;9.13;7.63;;;17.70;99.90;;;;;;5060304;28;20037;-57
2023/09/07 05:25:48;;;;;;;12.60;6.72;;;17.70;99.90;;;;;;5059939;28;20041;-59
2023/09/07 05:28:15;;;;;;;9.60;6.63;;;17.70;99.90;;;;;;5057447;28;20052;-56
2023/09/07 05:30:41;;;;;;;10.68;7.10;;;17.70;99.90;;;;;;5059351;28;20033;-57
2023/09/07 05:33:11;;;;;;;10.60;7.10;;;17.70;99.90;;;;;;5057843;28;20048;-57
2023/09/07 05:35:37;;;;;;;9.10;6.53;;;17.70;99.90;;;;;;5080597;28;20169;-57
2023/09/07 05:38:06;;;;;;;7.30;6.60;;;17.80;99.90;;;;;;5083313;28;20064;-56
2023/09/07 05:40:39;;;;;;;8.15;6.95;;;17.80;99.90;;;;;;5072323;28;20064;-56
2023/09/07 05:43:05;;;;;;;10.50;7.20;;;17.80;99.90;;;;;;5071337;28;20045;-57
2023/09/07 05:45:34;;;;;;;9.70;6.75;;;17.70;99.90;;;;;;5076488;28;20044;-57
2023/09/07 05:48:00;;;;;;;11.82;7.28;;;17.70;99.90;;;;;;5078506;28;20085;-57
2023/09/07 05:50:26;;;;;;;9.55;6.47;;;17.70;99.90;;;;;;5074859;28;20037;-57
2023/09/07 05:52:52;;;;;;;9.02;7.18;;;17.60;99.90;;;;;;5063511;28;20387;-57
2023/09/07 05:55:17;;;;;;;10.10;7.53;;;17.60;99.90;;;;;;5068204;28;20043;-59
2023/09/07 05:57:43;;;;;;;10.68;7.60;;;17.60;99.90;;;;;;5063676;28;20037;-57
2023/09/07 06:00:09;;;;;;;14.07;7.53;;;17.70;99.90;;;;;;5080087;28;20090;-57
2023/09/07 06:02:35;;;;;;;9.63;8.13;;;17.70;99.90;;;;;;5081966;28;20033;-57
2023/09/07 06:05:02;;;;;;;9.70;7.50;;;17.80;99.90;;;;;;5071531;28;20081;-57
2023/09/07 06:07:27;;;;;;;10.32;7.43;;;17.80;99.90;;;;;;5062827;28;20459;-58
2023/09/07 06:09:53;;;;;;;10.65;7.70;;;17.90;99.90;;;;;;5073196;28;20045;-56
2023/09/07 06:12:19;;;;;;;10.15;7.63;;;17.90;99.90;;;;;;5066799;28;20532;-57
2023/09/07 06:14:46;;;;;;;13.05;8.45;;;17.90;99.90;;;;;;5064422;28;20049;-57
2023/09/07 06:17:12;;;;;;;11.10;7.85;;;17.90;99.90;;;;;;5064780;28;20049;-56
2023/09/07 06:19:37;;;;;;;12.93;8.13;;;18.00;99.90;;;;;;5063590;28;20138;-56
2023/09/07 06:22:04;;;;;;;11.73;7.78;;;18.00;99.90;;;;;;5078392;28;20044;-56
2023/09/07 06:24:29;;;;;;;10.90;7.88;;;18.00;99.90;;;;;;5070466;28;20072;-56
2023/09/07 06:26:55;;;;;;;11.63;7.78;;;18.10;99.90;;;;;;5070256;28;20040;-57
2023/09/07 06:29:21;;;;;;;15.13;8.32;;;18.10;99.90;;;;;;5061911;28;20036;-57
2023/09/07 06:31:49;;;;;;;9.75;8.27;;;18.20;99.90;;;;;;5067267;28;20033;-58
2023/09/07 06:34:15;;;;;;;13.32;8.68;;;18.20;99.90;;;;;;5066447;28;20037;-57
2023/09/07 06:36:41;;;;;;;13.48;8.88;;;18.20;99.90;;;;;;5060829;28;20057;-57
2023/09/07 06:39:07;;;;;;;13.60;8.35;;;18.20;99.90;;;;;;5066696;28;20078;-58
2023/09/07 06:41:33;;;;;;;13.35;8.88;;;18.30;99.90;;;;;;5070340;28;20174;-57
2023/09/07 06:43:58;;;;;;;12.98;9.27;;;18.40;99.90;;;;;;5062516;28;20439;-56
2023/09/07 06:46:24;;;;;;;15.02;13.38;;;18.40;99.90;;;;;;5064793;28;20127;-58
2023/09/07 06:48:50;;;;;;;18.38;16.13;;;18.40;99.90;;;;;;5070465;28;20048;-59
2023/09/07 06:51:16;;;;;;;12.52;9.73;;;18.50;99.90;;;;;;5059125;28;20440;-59
2023/09/07 06:53:41;;;;;;;10.60;9.30;;;18.70;99.90;;;;;;5061208;28;20033;-58
2023/09/07 06:56:07;;;;;;;18.88;16.95;;;18.80;99.90;;;;;;5067697;28;20116;-58
2023/09/07 06:58:34;;;;;;;14.23;12.18;;;18.90;99.90;;;;;;5062491;28;20040;-58
2023/09/07 07:01:00;;;;;;;11.82;9.93;;;19.20;99.90;;;;;;5066869;28;20041;-58
2023/09/07 07:03:30;;;;;;;11.52;9.80;;;19.40;99.90;;;;;;5061315;28;20046;-58
2023/09/07 07:05:56;;;;;;;9.60;8.60;;;19.70;99.90;;;;;;5066847;28;20036;-58
2023/09/07 07:08:23;;;;;;;10.52;8.07;;;19.80;99.90;;;;;;5070779;28;20083;-58
2023/09/07 07:10:49;;;;;;;12.13;8.95;;;20.00;99.90;;;;;;5060109;28;20048;-58
2023/09/07 07:13:15;;;;;;;12.35;7.97;;;20.00;99.90;;;;;;5065596;28;20052;-56
2023/09/07 07:15:41;;;;;;;10.95;7.50;;;20.10;99.90;;;;;;5075408;28;20044;-58
2023/09/07 07:18:10;;;;;;;11.52;7.90;;;20.10;99.90;;;;;;5070439;28;20029;-57
2023/09/07 07:20:43;;;;;;;13.25;8.15;;;20.20;99.90;;;;;;5060789;28;20045;-59
2023/09/07 07:23:09;;;;;;;12.13;8.13;;;20.30;99.90;;;;;;5073419;28;20040;-57
2023/09/07 07:25:36;;;;;;;10.80;7.97;;;20.40;99.90;;;;;;5060057;28;20509;-59
2023/09/07 07:28:05;;;;;;;11.13;7.55;;;20.60;99.90;;;;;;5064389;28;20052;-58
2023/09/07 07:30:36;;;;;;;9.43;6.97;;;20.70;99.90;;;;;;5068997;28;20033;-58
2023/09/07 07:33:06;;;;;;;11.93;6.97;;;20.90;99.90;;;;;;5072414;28;20104;-59
2023/09/07 07:35:33;;;;;;;8.85;6.65;;;21.00;99.90;;;;;;5068598;28;20063;-61
2023/09/07 07:37:58;;;;;;;10.35;7.30;;;21.20;99.90;;;;;;5070155;28;20479;-58
2023/09/07 07:40:24;;;;;;;10.70;6.70;;;21.30;99.90;;;;;;5075280;28;20053;-59
2023/09/07 07:42:51;;;;;;;11.65;7.00;;;21.40;99.90;;;;;;5062225;28;20037;-59
2023/09/07 07:45:19;;;;;;;9.57;7.32;;;21.40;99.90;;;;;;5062700;28;20048;-57
2023/09/07 07:47:46;;;;;;;8.90;6.28;;;21.50;99.90;;;;;;5063477;28;20045;-58
2023/09/07 07:50:12;;;;;;;10.32;7.40;;;21.40;99.90;;;;;;5061164;28;20047;-57
2023/09/07 07:52:38;;;;;;;17.98;15.80;;;21.50;99.90;;;;;;5067955;28;20045;-57
2023/09/07 07:55:03;;;;;;;9.45;8.43;;;21.40;99.90;;;;;;5060231;28;20055;-57
2023/09/07 07:57:29;;;;;;;10.75;7.63;;;21.30;99.90;;;;;;5061017;28;20048;-57
2023/09/07 07:59:56;;;;;;;9.27;6.85;;;21.30;99.90;;;;;;5059557;28;20045;-58
2023/09/07 08:02:22;;;;;;;12.02;6.95;;;21.30;99.90;;;;;;5070902;28;20095;-57
2023/09/07 08:04:47;;;;;;;9.63;6.88;;;21.30;99.90;;;;;;5063520;28;20073;-59
2023/09/07 08:07:13;;;;;;;8.25;6.70;;;21.20;99.90;;;;;;5059859;28;20069;-57
2023/09/07 08:09:39;;;;;;;7.78;7.00;;;21.20;99.90;;;;;;5070159;28;20032;-58
2023/09/07 08:12:07;;;;;;;9.45;7.28;;;21.20;99.90;;;;;;5060105;28;20083;-57
2023/09/07 08:14:33;;;;;;;9.38;6.30;;;21.30;99.90;;;;;;5062752;28;20036;-58
2023/09/07 08:16:59;;;;;;;10.20;6.95;;;21.30;99.90;;;;;;5069981;28;20101;-58
2023/09/07 08:19:27;;;;;;;9.35;7.40;;;21.30;99.90;;;;;;5055997;28;20068;-58
2023/09/07 08:21:53;;;;;;;8.73;7.38;;;21.40;99.90;;;;;;5062561;28;20081;-61
2023/09/07 08:24:19;;;;;;;9.13;6.75;;;21.50;99.90;;;;;;5064692;28;20053;-57
2023/09/07 08:26:45;;;;;;;9.85;6.35;;;21.50;99.90;;;;;;5058011;28;20623;-58
2023/09/07 08:29:10;;;;;;;12.27;7.03;;;21.50;99.90;;;;;;5068666;28;20096;-58
2023/09/07 08:31:40;;;;;;;10.05;6.88;;;21.60;99.90;;;;;;5059133;28;20397;-57
2023/09/07 08:34:11;;;;;;;10.27;6.60;;;21.60;99.90;;;;;;5064903;28;20040;-58
2023/09/07 08:36:37;;;;;;;9.35;6.93;;;21.60;99.90;;;;;;5063616;28;20052;-57
2023/09/07 08:39:12;;;;;;;9.65;6.78;;;21.60;99.90;;;;;;5071731;28;20374;-58
2023/09/07 08:41:44;;;;;;;8.93;7.28;;;21.60;99.90;;;;;;5068912;28;20067;-60
2023/09/07 08:44:17;;;;;;;10.63;7.20;;;21.60;99.90;;;;;;5061436;28;20045;-57
2023/09/07 08:46:44;;;;;;;12.52;7.60;;;21.60;99.90;;;;;;5067436;28;20040;-58
2023/09/07 08:49:13;;;;;;;10.68;7.55;;;21.60;99.90;;;;;;5066000;28;20037;-58
2023/09/07 08:51:39;;;;;;;17.48;7.63;;;21.30;99.90;;;;;;5065827;28;20037;-58
2023/09/07 08:54:05;;;;;;;16.27;7.50;;;21.70;99.90;;;;;;5063799;28;20108;-58
2023/09/07 08:56:32;;;;;;;15.35;7.35;;;21.70;99.90;;;;;;5070180;28;20056;-58
2023/09/07 08:58:57;;;;;;;12.73;7.80;;;21.80;99.90;;;;;;5064012;28;20029;-58
2023/09/07 09:01:23;;;;;;;37.80;9.43;;;21.80;99.90;;;;;;5069602;28;20060;-58
2023/09/07 09:03:50;;;;;;;13.60;9.73;;;21.90;99.90;;;;;;5062902;28;20029;-59
2023/09/07 09:06:20;;;;;;;9.82;7.22;;;21.90;99.90;;;;;;5058873;28;20045;-59
2023/09/07 09:08:52;;;;;;;21.05;7.20;;;22.00;99.90;;;;;;5063416;28;20111;-59
2023/09/07 09:11:19;;;;;;;18.67;7.38;;;22.00;99.90;;;;;;5078386;28;20352;-58
2023/09/07 09:13:45;;;;;;;13.40;7.38;;;22.10;99.90;;;;;;5072988;28;20566;-58
2023/09/07 09:16:12;;;;;;;11.95;6.80;;;22.10;99.90;;;;;;5063202;28;20048;-58
2023/09/07 09:18:47;;;;;;;12.15;7.28;;;22.20;99.90;;;;;;5073536;28;20079;-58
2023/09/07 09:21:14;;;;;;;9.00;6.97;;;22.20;99.90;;;;;;5066278;28;20100;-58
2023/09/07 09:23:41;;;;;;;10.70;7.53;;;22.30;99.90;;;;;;5077389;28;20033;-59
2023/09/07 09:26:07;;;;;;;16.52;7.82;;;22.30;99.90;;;;;;5077686;28;20098;-59
2023/09/07 09:28:34;;;;;;;10.73;6.90;;;22.40;99.90;;;;;;5075531;28;20508;-59
2023/09/07 09:31:01;;;;;;;8.30;6.80;;;22.40;99.90;;;;;;5070356;28;20413;-59
2023/09/07 09:33:29;;;;;;;14.18;7.15;;;22.50;99.90;;;;;;5075866;28;20076;-59
2023/09/07 09:35:56;;;;;;;9.05;7.20;;;22.60;99.90;;;;;;5068523;28;20131;-58
2023/09/07 09:38:22;;;;;;;10.73;6.65;;;22.60;99.90;;;;;;5070983;28;20147;-58
2023/09/07 09:40:48;;;;;;;11.32;6.40;;;22.70;99.90;;;;;;5074821;28;20037;-57
2023/09/07 09:43:14;;;;;;;11.00;6.53;;;22.80;99.90;;;;;;5065515;28;20118;-58
2023/09/07 09:45:41;;;;;;;9.68;6.32;;;22.90;99.90;;;;;;5070958;28;20037;-59
2023/09/07 09:48:06;;;;;;;10.85;6.13;;;22.90;99.90;;;;;;5064050;28;20068;-59
2023/09/07 09:50:37;;;;;;;8.57;6.55;;;22.90;99.90;;;;;;5058820;28;20044;-59
2023/09/07 09:53:09;;;;;;;8.43;6.65;;;22.90;99.90;;;;;;5060323;28;20071;-58
2023/09/07 09:55:35;;;;;;;8.35;6.68;;;23.00;99.90;;;;;;5076032;28;20033;-59
2023/09/07 09:58:01;;;;;;;10.68;6.35;;;23.00;99.90;;;;;;5065980;28;20089;-58
2023/09/07 10:00:30;;;;;;;9.80;6.30;;;23.00;99.90;;;;;;5066741;28;20086;-59
2023/09/07 10:03:11;;;;;;;9.48;6.30;;;23.00;99.90;;;;;;5068824;28;20052;-58
2023/09/07 10:05:37;;;;;;;8.35;6.60;;;23.10;99.90;;;;;;5077570;28;20526;-61
2023/09/07 10:08:14;;;;;;;8.57;6.22;;;23.10;99.90;;;;;;5079504;28;20086;-62
2023/09/07 10:10:42;;;;;;;11.65;6.10;;;23.10;99.90;;;;;;5067477;28;20579;-61
2023/09/07 10:13:08;;;;;;;10.85;6.15;;;23.20;99.90;;;;;;5068986;28;20041;-62
2023/09/07 10:15:38;;;;;;;10.38;6.00;;;23.20;99.90;;;;;;5061414;28;20047;-61
2023/09/07 10:18:09;;;;;;;8.52;5.50;;;23.30;99.90;;;;;;5061626;28;20053;-61
2023/09/07 10:20:58;;;;;;;7.63;5.60;;;23.30;99.90;;;;;;5080974;28;20029;-61
2023/09/07 10:23:51;;;;;;;13.05;5.72;;;23.40;99.90;;;;;;5079917;28;20045;-60
2023/09/07 10:26:20;;;;;;;9.50;6.22;;;23.50;99.90;;;;;;5081741;28;20075;-61
2023/09/07 10:28:46;;;;;;;8.68;5.97;;;23.50;99.90;;;;;;5075685;28;20049;-61
2023/09/07 10:31:19;;;;;;;10.73;5.90;;;23.60;99.90;;;;;;5069977;28;20041;-59
2023/09/07 10:33:46;;;;;;;8.75;5.88;;;23.60;99.90;;;;;;5077513;28;20051;-60
2023/09/07 10:36:26;;;;;;;9.50;5.97;;;23.60;99.90;;;;;;5065186;28;20068;-61
2023/09/07 10:38:54;;;;;;;12.57;5.57;;;23.70;99.90;;;;;;5062288;28;20049;-56
2023/09/07 10:41:20;;;;;;;9.40;6.13;;;23.80;99.90;;;;;;5061417;28;20033;-54
2023/09/07 10:43:54;;;;;;;10.57;5.57;;;23.80;99.90;;;;;;5065304;28;20047;-56
2023/09/07 10:46:23;;;;;;;8.75;5.35;;;23.90;99.90;;;;;;5063460;28;20041;-57
2023/09/07 10:48:53;;;;;;;7.90;5.32;;;23.90;99.90;;;;;;5061365;28;20037;-57
2023/09/07 10:51:19;;;;;;;7.97;4.90;;;23.90;99.90;;;;;;5066950;28;20036;-57
2023/09/07 10:53:45;;;;;;;8.00;5.40;;;23.90;99.90;;;;;;5081034;28;20080;-57
2023/09/07 10:56:11;;;;;;;9.23;5.80;;;24.00;99.90;;;;;;5078934;28;20094;-56
2023/09/07 10:58:42;;;;;;;9.45;5.80;;;24.00;99.90;;;;;;5076345;28;20033;-56
2023/09/07 11:01:09;;;;;;;13.48;10.18;;;24.10;99.90;;;;;;5071805;28;20578;-57
2023/09/07 11:03:36;;;;;;;8.73;6.43;;;24.20;99.90;;;;;;5068645;28;20044;-57
2023/09/07 11:06:19;;;;;;;8.45;5.30;;;24.30;99.90;;;;;;5080685;28;20044;-56
2023/09/07 11:08:48;;;;;;;8.88;5.18;;;24.50;99.90;;;;;;5081776;28;20044;-59
2023/09/07 11:11:14;;;;;;;7.18;5.13;;;24.60;99.90;;;;;;5079595;28;20040;-57
2023/09/07 11:13:39;;;;;;;7.28;4.85;;;24.70;99.90;;;;;;5082275;28;20098;-58
2023/09/07 11:16:08;;;;;;;9.20;5.38;;;24.80;99.90;;;;;;5068331;28;20116;-58
2023/09/07 11:18:37;;;;;;;12.27;5.13;;;24.80;99.90;;;;;;5063178;28;20105;-58
2023/09/07 11:21:04;;;;;;;10.60;4.93;;;24.90;99.90;;;;;;5061701;28;20051;-58
2023/09/07 11:23:38;;;;;;;5.88;4.80;;;25.00;99.90;;;;;;5060627;28;20041;-58
2023/09/07 11:26:05;;;;;;;6.82;4.70;;;25.10;99.90;;;;;;5059857;28;20044;-57
2023/09/07 11:28:31;;;;;;;8.13;5.03;;;25.10;99.90;;;;;;5078609;28;20036;-57
2023/09/07 11:30:58;;;;;;;9.73;4.35;;;25.20;99.90;;;;;;5069946;28;20063;-57
2023/09/07 11:33:25;;;;;;;6.80;4.25;;;25.10;99.90;;;;;;5075756;28;20040;-57
2023/09/07 11:35:51;;;;;;;5.47;4.55;;;25.10;99.90;;;;;;5065810;28;20057;-57
2023/09/07 11:38:18;;;;;;;7.80;4.43;;;25.20;99.90;;;;;;5080379;28;20055;-58
2023/09/07 11:40:47;;;;;;;8.85;4.93;;;25.20;99.90;;;;;;5079921;28;20041;-57
2023/09/07 11:43:13;;;;;;;8.02;4.68;;;25.20;99.90;;;;;;5081170;28;20047;-58
2023/09/07 11:45:44;;;;;;;8.18;4.70;;;25.20;99.90;;;;;;5079430;28;20076;-56
2023/09/07 11:48:10;;;;;;;5.82;4.60;;;25.20;99.90;;;;;;5081404;28;20051;-57
2023/09/07 11:50:37;;;;;;;9.98;4.82;;;25.20;99.90;;;;;;5080699;28;20044;-57
2023/09/07 11:53:07;;;;;;;11.00;5.22;;;25.30;99.90;;;;;;5078489;28;20108;-58
2023/09/07 11:55:33;;;;;;;8.38;7.25;;;25.40;99.90;;;;;;5063858;28;20128;-58
2023/09/07 11:58:00;;;;;;;7.47;5.47;;;25.50;99.90;;;;;;5059989;28;20063;-58
2023/09/07 12:00:26;;;;;;;6.25;4.22;;;25.70;99.90;;;;;;5061202;28;20079;-56
2023/09/07 12:02:52;;;;;;;12.25;5.00;;;25.80;99.90;;;;;;5069839;28;20044;-57
2023/09/07 12:05:19;;;;;;;9.85;4.35;;;25.90;99.90;;;;;;5080911;28;20037;-57
2023/09/07 12:07:45;;;;;;;6.53;4.30;;;25.90;99.90;;;;;;5076856;28;20088;-57
2023/09/07 12:10:11;;;;;;;8.35;4.40;;;26.00;99.90;;;;;;5059786;28;20045;-57
2023/09/07 12:12:38;;;;;;;5.47;4.43;;;26.00;99.90;;;;;;5060949;28;20041;-57
2023/09/07 12:15:04;;;;;;;8.32;3.90;;;26.00;99.90;;;;;;5059420;28;20052;-58
2023/09/07 12:17:31;;;;;;;5.82;4.20;;;26.10;99.90;;;;;;5060196;28;20060;-57
2023/09/07 12:19:56;;;;;;;6.28;4.18;;;26.10;99.90;;;;;;5059801;28;20079;-55
2023/09/07 12:22:22;;;;;;;5.90;4.30;;;26.10;99.90;;;;;;5063844;28;20117;-58
2023/09/07 12:24:49;;;;;;;7.63;3.95;;;26.20;99.90;;;;;;5060319;28;20041;-57
2023/09/07 12:27:15;;;;;;;6.60;3.97;;;26.20;99.90;;;;;;5060727;28;20091;-59
2023/09/07 12:29:40;;;;;;;8.38;4.05;;;26.20;99.90;;;;;;5060165;28;20501;-59
2023/09/07 12:32:06;;;;;;;5.72;3.78;;;26.30;99.90;;;;;;5064190;28;20044;-59
2023/09/07 12:34:32;;;;;;;6.50;3.58;;;26.30;99.90;;;;;;5074026;28;20067;-59
2023/09/07 12:36:57;;;;;;;6.70;4.13;;;26.30;99.90;;;;;;5069768;28;20133;-61
2023/09/07 12:39:23;;;;;;;4.72;3.50;;;26.30;99.90;;;;;;5067258;28;20029;-61
2023/09/07 12:41:49;;;;;;;5.90;3.70;;;26.30;99.90;;;;;;5079811;28;20409;-60
2023/09/07 12:44:14;;;;;;;7.40;4.00;;;26.40;99.80;;;;;;5069982;28;20040;-60
2023/09/07 12:46:40;;;;;;;7.00;3.67;;;26.40;99.60;;;;;;5079214;28;20033;-60
2023/09/07 12:49:06;;;;;;;6.22;3.83;;;26.50;99.60;;;;;;5078938;28;20523;-61
2023/09/07 12:51:31;;;;;;;5.28;3.80;;;26.50;99.60;;;;;;5078752;28;20041;-61
2023/09/07 12:53:57;;;;;;;5.90;4.00;;;26.50;99.70;;;;;;5079213;28;20068;-61
2023/09/07 12:56:23;;;;;;;6.82;3.85;;;26.60;99.70;;;;;;5079238;28;20052;-59
2023/09/07 12:58:52;;;;;;;9.60;4.03;;;26.60;99.70;;;;;;5079596;28;20044;-59
2023/09/07 13:01:18;;;;;;;7.20;4.25;;;26.70;99.40;;;;;;5079908;28;20454;-58